createdAt,value
2018-12-21T00:00:29.971Z,1008.39
2018-12-21T00:01:29.912Z,1008.27
2018-12-21T00:02:29.889Z,1008.41
2018-12-21T00:03:29.884Z,1008.35
2018-12-21T00:04:29.871Z,1008.31
2018-12-21T00:05:29.860Z,1008.29
2018-12-21T00:06:29.874Z,1008.30
2018-12-21T00:07:29.838Z,1008.28
2018-12-21T00:08:29.834Z,1008.28
2018-12-21T00:09:29.821Z,1008.25
2018-12-21T00:10:29.807Z,1008.28
2018-12-21T00:11:29.812Z,1008.21
2018-12-21T00:12:29.792Z,1008.38
2018-12-21T00:13:29.786Z,1008.35
2018-12-21T00:14:29.771Z,1008.23
2018-12-21T00:15:29.744Z,1008.31
2018-12-21T00:16:29.762Z,1008.35
2018-12-21T00:17:34.569Z,1008.28
2018-12-21T00:18:30.722Z,1008.30
2018-12-21T00:19:29.709Z,1008.28
2018-12-21T00:20:29.695Z,1008.30
2018-12-21T00:21:29.722Z,1008.25
2018-12-21T00:22:29.664Z,1008.15
2018-12-21T00:23:29.674Z,1008.16
2018-12-21T00:24:29.648Z,1008.17
2018-12-21T00:25:29.642Z,1008.16
2018-12-21T00:26:29.633Z,1008.15
2018-12-21T00:27:29.618Z,1008.15
2018-12-21T00:28:29.600Z,1008.16
2018-12-21T00:29:29.602Z,1008.08
2018-12-21T00:30:29.584Z,1008.05
2018-12-21T00:31:29.589Z,1008.10
2018-12-21T00:32:29.557Z,1008.09
2018-12-21T00:33:29.544Z,1008.05
2018-12-21T00:34:29.537Z,1008.20
2018-12-21T00:35:29.519Z,1008.10
2018-12-21T00:36:29.540Z,1008.20
2018-12-21T00:37:29.510Z,1008.23
2018-12-21T00:38:29.491Z,1008.00
2018-12-21T00:39:29.477Z,1008.03
2018-12-21T00:40:29.463Z,1008.01
2018-12-21T00:41:29.473Z,1008.10
2018-12-21T00:42:29.449Z,1008.12
2018-12-21T00:43:29.431Z,1008.01
2018-12-21T00:44:29.435Z,1007.99
2018-12-21T00:45:29.413Z,1007.97
2018-12-21T00:46:29.427Z,1007.99
2018-12-21T00:47:29.440Z,1007.94
2018-12-21T00:48:29.379Z,1008.09
2018-12-21T00:49:29.372Z,1008.13
2018-12-21T00:50:29.351Z,1008.12
2018-12-21T00:51:30.288Z,1008.12
2018-12-21T00:52:29.359Z,1008.06
2018-12-21T00:53:29.330Z,1007.98
2018-12-21T00:54:29.317Z,1008.00
2018-12-21T00:55:29.306Z,1008.03
2018-12-21T00:56:29.295Z,1008.03
2018-12-21T00:57:29.317Z,1007.98
2018-12-21T00:58:29.261Z,1008.07
2018-12-21T00:59:29.261Z,1008.00
2018-12-21T01:00:29.242Z,1008.05
2018-12-21T01:01:29.238Z,1008.18
2018-12-21T01:02:29.224Z,1008.09
2018-12-21T01:03:29.209Z,1008.22
2018-12-21T01:04:29.202Z,1008.16
2018-12-21T01:05:29.182Z,1008.22
2018-12-21T01:06:29.176Z,1008.26
2018-12-21T01:07:29.189Z,1008.27
2018-12-21T01:08:29.170Z,1008.29
2018-12-21T01:09:29.145Z,1008.33
2018-12-21T01:10:29.126Z,1008.28
2018-12-21T01:11:29.134Z,1008.30
2018-12-21T01:12:29.143Z,1008.29
2018-12-21T01:13:29.094Z,1008.31
2018-12-21T01:14:29.080Z,1008.33
2018-12-21T01:15:29.068Z,1008.32
2018-12-21T01:16:29.066Z,1008.32
2018-12-21T01:17:29.074Z,1008.34
2018-12-21T01:18:29.040Z,1008.30
2018-12-21T01:19:29.025Z,1008.36
2018-12-21T01:20:29.030Z,1008.33
2018-12-21T01:21:29.002Z,1008.24
2018-12-21T01:22:29.005Z,1008.27
2018-12-21T01:23:28.983Z,1008.29
2018-12-21T01:24:28.980Z,1008.22
2018-12-21T01:25:28.954Z,1008.27
2018-12-21T01:26:28.959Z,1008.35
2018-12-21T01:27:28.963Z,1008.17
2018-12-21T01:28:28.926Z,1008.22
2018-12-21T01:29:28.918Z,1008.33
2018-12-21T01:30:28.906Z,1008.32
2018-12-21T01:31:28.902Z,1008.28
2018-12-21T01:32:28.876Z,1008.30
2018-12-21T01:33:28.896Z,1008.30
2018-12-21T01:34:28.858Z,1008.16
2018-12-21T01:35:28.854Z,1008.33
2018-12-21T01:36:28.837Z,1008.17
2018-12-21T01:37:28.823Z,1008.20
2018-12-21T01:38:28.836Z,1008.28
2018-12-21T01:39:28.918Z,1008.25
2018-12-21T01:40:28.790Z,1008.23
2018-12-21T01:41:28.785Z,1008.19
2018-12-21T01:42:28.768Z,1008.19
2018-12-21T01:43:28.776Z,1008.06
2018-12-21T01:44:28.743Z,1008.01
2018-12-21T01:45:28.738Z,1008.09
2018-12-21T01:46:28.730Z,1008.05
2018-12-21T01:47:28.711Z,1008.00
2018-12-21T01:48:28.725Z,1008.02
2018-12-21T01:49:28.689Z,1007.94
2018-12-21T01:50:28.679Z,1007.96
2018-12-21T01:51:28.664Z,1007.95
2018-12-21T01:52:28.656Z,1008.06
2018-12-21T01:53:28.688Z,1007.96
2018-12-21T01:54:28.640Z,1007.94
2018-12-21T01:55:28.623Z,1007.88
2018-12-21T01:56:28.617Z,1008.07
2018-12-21T01:57:28.601Z,1008.03
2018-12-21T01:58:28.595Z,1008.06
2018-12-21T01:59:28.575Z,1007.91
2018-12-21T02:00:28.559Z,1007.92
2018-12-21T02:01:28.557Z,1008.01
2018-12-21T02:02:28.542Z,1007.96
2018-12-21T02:03:28.541Z,1007.92
2018-12-21T02:04:28.572Z,1007.91
2018-12-21T02:05:28.519Z,1007.88
2018-12-21T02:06:28.493Z,1007.90
2018-12-21T02:07:28.483Z,1007.92
2018-12-21T02:08:28.486Z,1007.95
2018-12-21T02:09:28.475Z,1008.02
2018-12-21T02:10:28.451Z,1007.86
2018-12-21T02:11:28.452Z,1007.91
2018-12-21T02:12:28.426Z,1007.96
2018-12-21T02:13:28.453Z,1007.94
2018-12-21T02:14:28.413Z,1007.85
2018-12-21T02:15:28.401Z,1007.81
2018-12-21T02:16:28.391Z,1007.77
2018-12-21T02:17:28.378Z,1007.77
2018-12-21T02:18:28.382Z,1007.80
2018-12-21T02:19:28.371Z,1007.78
2018-12-21T02:20:28.340Z,1007.79
2018-12-21T02:21:28.340Z,1007.77
2018-12-21T02:22:28.334Z,1007.75
2018-12-21T02:23:28.314Z,1007.78
2018-12-21T02:24:28.324Z,1007.72
2018-12-21T02:25:28.291Z,1007.90
2018-12-21T02:26:28.283Z,1007.85
2018-12-21T02:27:28.270Z,1007.81
2018-12-21T02:28:28.265Z,1007.78
2018-12-21T02:29:28.291Z,1007.73
2018-12-21T02:30:28.224Z,1007.68
2018-12-21T02:31:28.227Z,1007.66
2018-12-21T02:32:28.213Z,1007.84
2018-12-21T02:33:28.205Z,1007.65
2018-12-21T02:34:28.236Z,1007.63
2018-12-21T02:35:28.219Z,1007.69
2018-12-21T02:36:28.166Z,1007.66
2018-12-21T02:37:28.165Z,1007.70
2018-12-21T02:38:28.177Z,1007.66
2018-12-21T02:39:28.217Z,1007.62
2018-12-21T02:40:28.171Z,1007.63
2018-12-21T02:41:28.190Z,1007.60
2018-12-21T02:42:28.156Z,1007.69
2018-12-21T02:43:28.132Z,1007.58
2018-12-21T02:44:28.168Z,1007.72
2018-12-21T02:45:28.169Z,1007.72
2018-12-21T02:46:28.117Z,1007.71
2018-12-21T02:47:28.167Z,1007.62
2018-12-21T02:48:28.123Z,1007.63
2018-12-21T02:49:28.086Z,1007.75
2018-12-21T02:50:28.007Z,1007.67
2018-12-21T02:51:28.059Z,1007.61
2018-12-21T02:52:27.979Z,1007.68
2018-12-21T02:53:27.977Z,1007.64
2018-12-21T02:54:27.995Z,1007.65
2018-12-21T02:55:27.961Z,1007.66
2018-12-21T02:56:27.942Z,1007.61
2018-12-21T02:57:27.921Z,1007.56
2018-12-21T02:58:27.931Z,1007.58
2018-12-21T02:59:27.909Z,1007.54
2018-12-21T03:00:27.911Z,1007.57
2018-12-21T03:01:27.883Z,1007.69
2018-12-21T03:02:27.941Z,1007.58
2018-12-21T03:03:27.857Z,1007.65
2018-12-21T03:04:27.862Z,1007.56
2018-12-21T03:05:27.860Z,1007.48
2018-12-21T03:06:27.841Z,1007.56
2018-12-21T03:07:27.816Z,1007.48
2018-12-21T03:08:27.812Z,1007.44
2018-12-21T03:09:27.789Z,1007.43
2018-12-21T03:10:27.809Z,1007.42
2018-12-21T03:11:27.811Z,1007.47
2018-12-21T03:12:27.761Z,1007.46
2018-12-21T03:13:27.748Z,1007.41
2018-12-21T03:14:27.755Z,1007.36
2018-12-21T03:15:27.741Z,1007.31
2018-12-21T03:16:27.717Z,1007.46
2018-12-21T03:17:27.721Z,1007.39
2018-12-21T03:18:27.700Z,1007.44
2018-12-21T03:19:27.675Z,1007.41
2018-12-21T03:20:27.697Z,1007.35
2018-12-21T03:21:27.662Z,1007.32
2018-12-21T03:22:27.648Z,1007.44
2018-12-21T03:23:27.650Z,1007.39
2018-12-21T03:24:27.639Z,1007.31
2018-12-21T03:25:27.626Z,1007.45
2018-12-21T03:26:27.606Z,1007.40
2018-12-21T03:27:27.592Z,1007.30
2018-12-21T03:28:27.578Z,1007.30
2018-12-21T03:29:27.558Z,1007.45
2018-12-21T03:30:27.720Z,1007.32
2018-12-21T03:31:27.540Z,1007.30
2018-12-21T03:32:27.554Z,1007.30
2018-12-21T03:33:27.520Z,1007.24
2018-12-21T03:34:27.518Z,1007.28
2018-12-21T03:35:27.515Z,1007.30
2018-12-21T03:36:27.507Z,1007.29
2018-12-21T03:37:27.478Z,1007.23
2018-12-21T03:38:27.470Z,1007.39
2018-12-21T03:39:27.455Z,1007.21
2018-12-21T03:40:27.479Z,1007.18
2018-12-21T03:41:27.443Z,1007.33
2018-12-21T03:42:27.412Z,1007.29
2018-12-21T03:43:27.428Z,1007.18
2018-12-21T03:44:27.403Z,1007.19
2018-12-21T03:45:27.398Z,1007.20
2018-12-21T03:46:27.393Z,1007.11
2018-12-21T03:47:27.448Z,1007.17
2018-12-21T03:48:27.353Z,1007.19
2018-12-21T03:49:27.345Z,1007.26
2018-12-21T03:50:27.332Z,1007.22
2018-12-21T03:51:27.370Z,1007.05
2018-12-21T03:52:27.312Z,1007.10
2018-12-21T03:53:27.306Z,1007.07
2018-12-21T03:54:27.276Z,1007.10
2018-12-21T03:55:27.275Z,1007.07
2018-12-21T03:56:27.275Z,1007.09
2018-12-21T03:57:27.250Z,1007.07
2018-12-21T03:58:27.236Z,1007.01
2018-12-21T03:59:27.252Z,1007.23
2018-12-21T04:00:27.210Z,1007.15
2018-12-21T04:01:27.233Z,1007.05
2018-12-21T04:02:27.190Z,1007.02
2018-12-21T04:03:27.188Z,1007.09
2018-12-21T04:04:27.160Z,1007.12
2018-12-21T04:05:27.160Z,1007.12
2018-12-21T04:06:27.165Z,1006.98
2018-12-21T04:07:27.138Z,1007.17
2018-12-21T04:08:27.135Z,1007.09
2018-12-21T04:09:27.116Z,1007.15
2018-12-21T04:10:27.165Z,1007.15
2018-12-21T04:11:27.143Z,1007.13
2018-12-21T04:12:27.115Z,1007.00
2018-12-21T04:13:27.073Z,1007.04
2018-12-21T04:14:27.058Z,1007.08
2018-12-21T04:15:27.068Z,1006.96
2018-12-21T04:16:27.060Z,1006.93
2018-12-21T04:17:27.041Z,1006.95
2018-12-21T04:18:27.008Z,1006.99
2018-12-21T04:19:27.002Z,1006.91
2018-12-21T04:20:26.989Z,1006.89
2018-12-21T04:21:27.009Z,1007.07
2018-12-21T04:22:34.102Z,1007.05
2018-12-21T04:23:27.955Z,1007.09
2018-12-21T04:24:26.946Z,1007.04
2018-12-21T04:25:26.989Z,1006.97
2018-12-21T04:26:26.936Z,1006.99
2018-12-21T04:27:26.945Z,1007.02
2018-12-21T04:28:26.901Z,1007.06
2018-12-21T04:29:26.889Z,1006.99
2018-12-21T04:30:26.880Z,1007.00
2018-12-21T04:31:26.863Z,1007.02
2018-12-21T04:32:26.879Z,1006.93
2018-12-21T04:33:26.845Z,1006.98
2018-12-21T04:34:26.839Z,1006.92
2018-12-21T04:35:26.827Z,1006.91
2018-12-21T04:36:26.810Z,1006.85
2018-12-21T04:37:26.817Z,1006.92
2018-12-21T04:38:26.805Z,1006.85
2018-12-21T04:39:26.779Z,1006.85
2018-12-21T04:40:26.768Z,1006.95
2018-12-21T04:41:26.755Z,1006.92
2018-12-21T04:42:26.753Z,1006.89
2018-12-21T04:43:26.741Z,1006.90
2018-12-21T04:44:26.729Z,1006.89
2018-12-21T04:45:26.712Z,1006.87
2018-12-21T04:46:26.697Z,1006.78
2018-12-21T04:47:26.717Z,1006.87
2018-12-21T04:48:26.678Z,1007.00
2018-12-21T04:49:26.678Z,1006.88
2018-12-21T04:50:26.662Z,1006.78
2018-12-21T04:51:26.648Z,1006.92
2018-12-21T04:52:26.669Z,1006.75
2018-12-21T04:53:26.631Z,1006.84
2018-12-21T04:54:26.610Z,1006.77
2018-12-21T04:55:26.596Z,1006.78
2018-12-21T04:56:26.590Z,1006.80
2018-12-21T04:57:26.604Z,1006.82
2018-12-21T04:58:26.556Z,1006.78
2018-12-21T04:59:26.562Z,1006.82
2018-12-21T05:00:26.556Z,1006.86
2018-12-21T05:01:26.529Z,1006.88
2018-12-21T05:02:26.543Z,1006.74
2018-12-21T05:03:26.522Z,1006.74
2018-12-21T05:04:26.507Z,1006.72
2018-12-21T05:05:26.488Z,1006.73
2018-12-21T05:06:26.470Z,1006.77
2018-12-21T05:07:26.502Z,1006.71
2018-12-21T05:08:26.455Z,1006.75
2018-12-21T05:09:26.440Z,1006.73
2018-12-21T05:10:26.480Z,1006.69
2018-12-21T05:11:26.428Z,1006.71
2018-12-21T05:12:26.424Z,1006.78
2018-12-21T05:13:26.409Z,1006.77
2018-12-21T05:14:26.395Z,1006.78
2018-12-21T05:15:26.387Z,1006.76
2018-12-21T05:16:26.358Z,1006.84
2018-12-21T05:17:26.374Z,1006.77
2018-12-21T05:18:26.356Z,1006.83
2018-12-21T05:19:26.328Z,1006.70
2018-12-21T05:20:26.315Z,1006.84
2018-12-21T05:21:26.308Z,1006.66
2018-12-21T05:22:26.298Z,1006.77
2018-12-21T05:23:26.303Z,1006.81
2018-12-21T05:24:26.286Z,1006.79
2018-12-21T05:25:26.256Z,1006.73
2018-12-21T05:26:26.245Z,1006.76
2018-12-21T05:27:26.250Z,1006.66
2018-12-21T05:28:26.245Z,1006.79
2018-12-21T05:29:26.217Z,1006.84
2018-12-21T05:30:26.208Z,1006.75
2018-12-21T05:31:28.522Z,1006.73
2018-12-21T05:32:26.178Z,1006.61
2018-12-21T05:33:26.190Z,1006.66
2018-12-21T05:34:26.154Z,1006.62
2018-12-21T05:35:26.150Z,1006.65
2018-12-21T05:36:26.143Z,1006.72
2018-12-21T05:37:26.122Z,1006.62
2018-12-21T05:38:26.124Z,1006.64
2018-12-21T05:39:26.168Z,1006.56
2018-12-21T05:40:26.098Z,1006.75
2018-12-21T05:41:26.081Z,1006.51
2018-12-21T05:42:26.074Z,1006.56
2018-12-21T05:43:26.079Z,1006.51
2018-12-21T05:44:26.047Z,1006.58
2018-12-21T05:45:26.035Z,1006.53
2018-12-21T05:46:26.023Z,1006.50
2018-12-21T05:47:26.017Z,1006.48
2018-12-21T05:48:26.021Z,1006.59
2018-12-21T05:49:25.987Z,1006.54
2018-12-21T05:50:25.975Z,1006.48
2018-12-21T05:51:25.985Z,1006.51
2018-12-21T05:52:25.967Z,1006.55
2018-12-21T05:53:25.980Z,1006.42
2018-12-21T05:54:25.952Z,1006.43
2018-12-21T05:55:25.921Z,1006.39
2018-12-21T05:56:25.911Z,1006.36
2018-12-21T05:57:25.911Z,1006.34
2018-12-21T05:58:25.890Z,1006.38
2018-12-21T05:59:25.909Z,1006.34
2018-12-21T06:00:25.871Z,1006.29
2018-12-21T06:01:25.857Z,1006.29
2018-12-21T06:02:25.848Z,1006.34
2018-12-21T06:03:25.848Z,1006.33
2018-12-21T06:04:25.850Z,1006.29
2018-12-21T06:05:25.813Z,1006.27
2018-12-21T06:06:25.800Z,1006.22
2018-12-21T06:07:25.793Z,1006.21
2018-12-21T06:08:25.771Z,1006.34
2018-12-21T06:09:25.802Z,1006.19
2018-12-21T06:10:25.767Z,1006.19
2018-12-21T06:11:25.755Z,1006.11
2018-12-21T06:12:25.738Z,1006.16
2018-12-21T06:13:25.732Z,1006.25
2018-12-21T06:14:25.736Z,1006.13
2018-12-21T06:15:25.701Z,1006.11
2018-12-21T06:16:25.688Z,1006.08
2018-12-21T06:17:25.684Z,1006.02
2018-12-21T06:18:25.671Z,1005.98
2018-12-21T06:19:25.675Z,1006.05
2018-12-21T06:20:25.674Z,1005.95
2018-12-21T06:21:25.634Z,1006.00
2018-12-21T06:22:25.615Z,1006.00
2018-12-21T06:23:25.606Z,1005.98
2018-12-21T06:24:25.611Z,1005.87
2018-12-21T06:25:25.586Z,1005.90
2018-12-21T06:26:25.604Z,1005.91
2018-12-21T06:27:25.556Z,1005.88
2018-12-21T06:28:25.565Z,1005.89
2018-12-21T06:29:25.565Z,1005.85
2018-12-21T06:30:25.545Z,1005.83
2018-12-21T06:31:25.545Z,1005.77
2018-12-21T06:32:25.515Z,1005.79
2018-12-21T06:33:25.486Z,1005.72
2018-12-21T06:34:25.559Z,1005.85
2018-12-21T06:35:25.474Z,1005.87
2018-12-21T06:36:25.468Z,1005.81
2018-12-21T06:37:25.444Z,1005.76
2018-12-21T06:38:25.439Z,1005.76
2018-12-21T06:39:25.502Z,1005.65
2018-12-21T06:40:25.426Z,1005.62
2018-12-21T06:41:25.416Z,1005.55
2018-12-21T06:42:25.402Z,1005.78
2018-12-21T06:43:25.382Z,1005.72
2018-12-21T06:44:25.405Z,1005.57
2018-12-21T06:45:25.396Z,1005.72
2018-12-21T06:46:25.358Z,1005.67
2018-12-21T06:47:25.340Z,1005.65
2018-12-21T06:48:25.329Z,1005.58
2018-12-21T06:49:25.348Z,1005.53
2018-12-21T06:50:25.310Z,1005.54
2018-12-21T06:51:25.302Z,1005.49
2018-12-21T06:52:25.310Z,1005.56
2018-12-21T06:53:25.290Z,1005.52
2018-12-21T06:54:25.258Z,1005.54
2018-12-21T06:55:25.263Z,1005.54
2018-12-21T06:56:25.243Z,1005.70
2018-12-21T06:57:25.230Z,1005.76
2018-12-21T06:58:25.230Z,1005.53
2018-12-21T06:59:25.230Z,1005.51
2018-12-21T07:00:25.220Z,1005.42
2018-12-21T07:01:25.187Z,1005.50
2018-12-21T07:02:25.177Z,1005.53
2018-12-21T07:03:25.159Z,1005.54
2018-12-21T07:04:25.149Z,1005.51
2018-12-21T07:05:25.171Z,1005.52
2018-12-21T07:06:25.123Z,1005.60
2018-12-21T07:07:25.133Z,1005.45
2018-12-21T07:08:25.108Z,1005.41
2018-12-21T07:09:25.083Z,1005.45
2018-12-21T07:10:25.101Z,1005.34
2018-12-21T07:11:25.057Z,1005.39
2018-12-21T07:12:25.062Z,1005.57
2018-12-21T07:13:25.049Z,1005.40
2018-12-21T07:14:25.044Z,1005.38
2018-12-21T07:15:25.044Z,1005.35
2018-12-21T07:16:25.014Z,1005.33
2018-12-21T07:17:25.035Z,1005.26
2018-12-21T07:18:25.001Z,1005.34
2018-12-21T07:19:25.008Z,1005.29
2018-12-21T07:20:24.976Z,1005.29
2018-12-21T07:21:24.990Z,1005.26
2018-12-21T07:22:24.948Z,1005.25
2018-12-21T07:23:27.292Z,1005.21
2018-12-21T07:24:24.926Z,1005.33
2018-12-21T07:25:24.921Z,1005.33
2018-12-21T07:26:24.918Z,1005.18
2018-12-21T07:27:24.896Z,1005.21
2018-12-21T07:28:24.872Z,1005.14
2018-12-21T07:29:24.958Z,1005.17
2018-12-21T07:30:24.868Z,1005.19
2018-12-21T07:31:24.847Z,1005.31
2018-12-21T07:32:24.846Z,1005.25
2018-12-21T07:33:24.820Z,1005.32
2018-12-21T07:34:25.957Z,1005.19
2018-12-21T07:35:24.804Z,1005.24
2018-12-21T07:36:24.810Z,1005.21
2018-12-21T07:37:24.790Z,1005.24
2018-12-21T07:38:24.784Z,1005.21
2018-12-21T07:39:24.751Z,1005.23
2018-12-21T07:40:24.746Z,1005.21
2018-12-21T07:41:24.746Z,1005.22
2018-12-21T07:42:24.721Z,1005.20
2018-12-21T07:43:24.720Z,1005.24
2018-12-21T07:44:24.692Z,1005.12
2018-12-21T07:45:24.690Z,1005.08
2018-12-21T07:46:24.688Z,1005.19
2018-12-21T07:47:24.686Z,1005.14
2018-12-21T07:48:24.657Z,1005.10
2018-12-21T07:49:24.658Z,1005.13
2018-12-21T07:50:24.626Z,1005.12
2018-12-21T07:51:24.648Z,1005.06
2018-12-21T07:52:24.606Z,1005.17
2018-12-21T07:53:24.601Z,1005.13
2018-12-21T07:54:24.588Z,1005.10
2018-12-21T07:55:24.585Z,1005.09
2018-12-21T07:56:24.584Z,1004.93
2018-12-21T07:57:24.549Z,1004.98
2018-12-21T07:58:24.545Z,1005.16
2018-12-21T07:59:24.537Z,1005.08
2018-12-21T08:00:24.524Z,1005.12
2018-12-21T08:01:24.528Z,1004.93
2018-12-21T08:02:24.492Z,1004.97
2018-12-21T08:03:24.494Z,1005.08
2018-12-21T08:04:24.468Z,1004.98
2018-12-21T08:05:24.456Z,1005.03
2018-12-21T08:06:24.450Z,1004.91
2018-12-21T08:07:24.451Z,1005.00
2018-12-21T08:08:24.426Z,1004.94
2018-12-21T08:09:24.415Z,1004.96
2018-12-21T08:10:24.401Z,1004.96
2018-12-21T08:11:24.383Z,1004.92
2018-12-21T08:12:24.396Z,1004.95
2018-12-21T08:13:24.375Z,1005.06
2018-12-21T08:14:24.360Z,1004.86
2018-12-21T08:15:24.348Z,1004.91
2018-12-21T08:16:24.332Z,1004.80
2018-12-21T08:17:24.350Z,1004.80
2018-12-21T08:18:24.310Z,1004.73
2018-12-21T08:19:24.297Z,1004.82
2018-12-21T08:20:24.306Z,1004.77
2018-12-21T08:21:24.280Z,1004.73
2018-12-21T08:22:24.283Z,1004.73
2018-12-21T08:23:24.248Z,1004.74
2018-12-21T08:24:24.258Z,1004.68
2018-12-21T08:25:24.231Z,1004.73
2018-12-21T08:26:24.220Z,1004.70
2018-12-21T08:27:24.252Z,1004.66
2018-12-21T08:28:24.236Z,1004.61
2018-12-21T08:29:24.185Z,1004.67
2018-12-21T08:30:24.170Z,1004.57
2018-12-21T08:31:24.174Z,1004.59
2018-12-21T08:32:24.168Z,1004.69
2018-12-21T08:33:24.156Z,1004.54
2018-12-21T08:34:24.127Z,1004.49
2018-12-21T08:35:24.125Z,1004.54
2018-12-21T08:36:24.134Z,1004.52
2018-12-21T08:37:24.116Z,1004.49
2018-12-21T08:38:24.090Z,1004.53
2018-12-21T08:39:24.074Z,1004.47
2018-12-21T08:40:24.161Z,1004.43
2018-12-21T08:41:24.062Z,1004.47
2018-12-21T08:42:24.074Z,1004.52
2018-12-21T08:43:24.033Z,1004.31
2018-12-21T08:44:24.028Z,1004.33
2018-12-21T08:45:24.006Z,1004.33
2018-12-21T08:46:24.000Z,1004.37
2018-12-21T08:47:24.045Z,1004.31
2018-12-21T08:48:24.110Z,1004.36
2018-12-21T08:49:23.964Z,1004.26
2018-12-21T08:50:23.965Z,1004.30
2018-12-21T08:51:23.945Z,1004.19
2018-12-21T08:52:23.929Z,1004.27
2018-12-21T08:53:23.947Z,1004.16
2018-12-21T08:54:24.026Z,1004.15
2018-12-21T08:55:23.904Z,1004.19
2018-12-21T08:56:23.937Z,1004.24
2018-12-21T08:57:23.890Z,1004.24
2018-12-21T08:58:23.902Z,1004.18
2018-12-21T08:59:23.846Z,1004.18
2018-12-21T09:00:23.852Z,1004.19
2018-12-21T09:01:23.847Z,1004.21
2018-12-21T09:02:23.847Z,1004.19
2018-12-21T09:03:23.836Z,1004.17
2018-12-21T09:04:31.983Z,1004.17
2018-12-21T09:05:25.733Z,1004.25
2018-12-21T09:06:23.777Z,1004.25
2018-12-21T09:07:23.792Z,1004.27
2018-12-21T09:08:23.787Z,1004.28
2018-12-21T09:09:23.744Z,1004.35
2018-12-21T09:10:23.743Z,1004.35
2018-12-21T09:11:23.714Z,1004.32
2018-12-21T09:12:23.721Z,1004.28
2018-12-21T09:13:23.717Z,1004.28
2018-12-21T09:14:23.682Z,1004.20
2018-12-21T09:15:23.683Z,1004.23
2018-12-21T09:16:23.669Z,1004.26
2018-12-21T09:17:23.651Z,1004.10
2018-12-21T09:18:23.658Z,1004.06
2018-12-21T09:19:23.629Z,1004.08
2018-12-21T09:20:23.615Z,1004.00
2018-12-21T09:21:23.617Z,1004.18
2018-12-21T09:22:23.591Z,1004.03
2018-12-21T09:23:23.808Z,1004.02
2018-12-21T09:24:23.575Z,1003.99
2018-12-21T09:25:23.590Z,1003.99
2018-12-21T09:26:23.551Z,1003.97
2018-12-21T09:27:23.556Z,1003.94
2018-12-21T09:28:23.545Z,1003.90
2018-12-21T09:29:23.527Z,1003.90
2018-12-21T09:30:23.511Z,1003.83
2018-12-21T09:31:23.495Z,1004.00
2018-12-21T09:32:23.480Z,1003.91
2018-12-21T09:33:23.489Z,1003.88
2018-12-21T09:34:23.465Z,1003.81
2018-12-21T09:35:23.455Z,1003.82
2018-12-21T09:36:23.452Z,1003.92
2018-12-21T09:37:23.439Z,1003.84
2018-12-21T09:38:23.427Z,1003.81
2018-12-21T09:39:23.406Z,1003.82
2018-12-21T09:40:23.400Z,1003.64
2018-12-21T09:41:23.383Z,1003.65
2018-12-21T09:42:23.380Z,1003.64
2018-12-21T09:43:23.394Z,1003.61
2018-12-21T09:44:23.350Z,1003.52
2018-12-21T09:45:23.348Z,1003.61
2018-12-21T09:46:23.331Z,1003.67
2018-12-21T09:47:23.327Z,1003.66
2018-12-21T09:48:23.298Z,1003.51
2018-12-21T09:49:23.306Z,1003.50
2018-12-21T09:50:23.279Z,1003.45
2018-12-21T09:51:23.291Z,1003.47
2018-12-21T09:52:23.262Z,1003.37
2018-12-21T09:53:23.252Z,1003.41
2018-12-21T09:54:23.244Z,1003.45
2018-12-21T09:55:23.252Z,1003.36
2018-12-21T09:56:23.219Z,1003.28
2018-12-21T09:57:23.204Z,1003.28
2018-12-21T09:58:23.205Z,1003.29
2018-12-21T09:59:23.198Z,1003.29
2018-12-21T10:00:23.170Z,1003.25
2018-12-21T10:01:23.161Z,1003.41
2018-12-21T10:02:23.144Z,1003.24
2018-12-21T10:03:23.147Z,1003.26
2018-12-21T10:04:23.135Z,1003.23
2018-12-21T10:05:23.120Z,1003.28
2018-12-21T10:06:23.088Z,1003.19
2018-12-21T10:07:27.535Z,1003.08
2018-12-21T10:08:23.082Z,1003.12
2018-12-21T10:09:23.084Z,1003.03
2018-12-21T10:10:23.055Z,1003.19
2018-12-21T10:11:23.048Z,1003.10
2018-12-21T10:12:23.045Z,1003.12
2018-12-21T10:13:23.039Z,1002.99
2018-12-21T10:14:23.032Z,1002.90
2018-12-21T10:15:22.987Z,1002.98
2018-12-21T10:16:22.983Z,1002.83
2018-12-21T10:17:22.977Z,1002.79
2018-12-21T10:18:22.967Z,1002.82
2018-12-21T10:19:22.973Z,1002.70
2018-12-21T10:20:22.943Z,1002.66
2018-12-21T10:21:22.922Z,1002.68
2018-12-21T10:22:22.920Z,1002.64
2018-12-21T10:23:22.905Z,1002.79
2018-12-21T10:24:22.907Z,1002.64
2018-12-21T10:25:22.898Z,1002.66
2018-12-21T10:26:22.865Z,1002.66
2018-12-21T10:27:22.858Z,1002.58
2018-12-21T10:28:22.862Z,1002.56
2018-12-21T10:29:22.866Z,1002.49
2018-12-21T10:30:22.830Z,1002.53
2018-12-21T10:31:22.905Z,1002.49
2018-12-21T10:32:22.804Z,1002.39
2018-12-21T10:33:22.799Z,1002.55
2018-12-21T10:34:22.784Z,1002.44
2018-12-21T10:35:22.787Z,1002.41
2018-12-21T10:36:22.762Z,1002.44
2018-12-21T10:37:22.768Z,1002.40
2018-12-21T10:38:22.732Z,1002.48
2018-12-21T10:39:22.735Z,1002.32
2018-12-21T10:40:22.774Z,1002.37
2018-12-21T10:41:22.712Z,1002.24
2018-12-21T10:42:22.692Z,1002.26
2018-12-21T10:43:22.690Z,1002.22
2018-12-21T10:44:22.725Z,1002.21
2018-12-21T10:45:22.676Z,1002.16
2018-12-21T10:46:22.648Z,1001.99
2018-12-21T10:47:22.660Z,1001.98
2018-12-21T10:48:22.646Z,1002.01
2018-12-21T10:49:22.615Z,1001.97
2018-12-21T10:50:22.616Z,1001.85
2018-12-21T10:51:22.601Z,1001.90
2018-12-21T10:52:22.585Z,1001.89
2018-12-21T10:53:22.573Z,1001.82
2018-12-21T10:54:26.835Z,1001.77
2018-12-21T10:55:22.560Z,1001.82
2018-12-21T10:56:22.545Z,1001.79
2018-12-21T10:57:22.531Z,1001.66
2018-12-21T10:58:22.504Z,1001.60
2018-12-21T10:59:22.505Z,1001.59
2018-12-21T11:00:22.508Z,1001.62
2018-12-21T11:01:22.486Z,1001.69
2018-12-21T11:02:22.463Z,1001.59
2018-12-21T11:03:22.462Z,1001.55
2018-12-21T11:04:22.447Z,1001.42
2018-12-21T11:05:22.458Z,1001.40
2018-12-21T11:06:22.425Z,1001.37
2018-12-21T11:07:22.433Z,1001.56
2018-12-21T11:08:22.409Z,1001.33
2018-12-21T11:09:22.393Z,1001.50
2018-12-21T11:10:22.395Z,1001.35
2018-12-21T11:11:22.385Z,1001.34
2018-12-21T11:12:22.362Z,1001.30
2018-12-21T11:13:22.369Z,1001.33
2018-12-21T11:14:22.359Z,1001.26
2018-12-21T11:15:22.346Z,1001.27
2018-12-21T11:16:22.321Z,1001.14
2018-12-21T11:17:22.315Z,1001.20
2018-12-21T11:18:22.306Z,1001.24
2018-12-21T11:19:22.276Z,1001.20
2018-12-21T11:20:22.330Z,1001.20
2018-12-21T11:21:22.252Z,1001.07
2018-12-21T11:22:22.255Z,1001.09
2018-12-21T11:23:22.235Z,1001.09
2018-12-21T11:24:22.225Z,1000.95
2018-12-21T11:25:22.229Z,1000.88
2018-12-21T11:26:22.195Z,1000.81
2018-12-21T11:27:22.201Z,1000.86
2018-12-21T11:28:25.478Z,1000.83
2018-12-21T11:29:22.167Z,1000.77
2018-12-21T11:30:22.179Z,1000.77
2018-12-21T11:31:22.152Z,1000.74
2018-12-21T11:32:22.128Z,1000.74
2018-12-21T11:33:22.122Z,1000.84
2018-12-21T11:34:22.131Z,1000.70
2018-12-21T11:35:22.116Z,1000.70
2018-12-21T11:36:22.089Z,1000.74
2018-12-21T11:37:22.077Z,1000.63
2018-12-21T11:38:22.062Z,1000.55
2018-12-21T11:39:22.066Z,1000.55
2018-12-21T11:40:22.066Z,1000.53
2018-12-21T11:41:22.037Z,1000.57
2018-12-21T11:42:22.016Z,1000.49
2018-12-21T11:43:21.998Z,1000.44
2018-12-21T11:44:21.999Z,1000.46
2018-12-21T11:45:21.997Z,1000.39
2018-12-21T11:46:21.972Z,1000.22
2018-12-21T11:47:21.976Z,1000.22
2018-12-21T11:48:21.969Z,1000.23
2018-12-21T11:49:21.939Z,1000.22
2018-12-21T11:50:21.954Z,1000.13
2018-12-21T11:51:21.939Z,1000.08
2018-12-21T11:52:21.905Z,1000.03
2018-12-21T11:53:21.891Z,999.91
2018-12-21T11:54:21.906Z,999.90
2018-12-21T11:55:21.922Z,999.87
2018-12-21T11:56:21.889Z,999.86
2018-12-21T11:57:21.857Z,999.81
2018-12-21T11:58:21.844Z,999.73
2018-12-21T11:59:21.829Z,999.75
2018-12-21T12:00:21.819Z,999.65
2018-12-21T12:01:21.822Z,999.72
2018-12-21T12:02:21.792Z,999.70
2018-12-21T12:03:21.789Z,999.79
2018-12-21T12:04:21.773Z,999.73
2018-12-21T12:05:21.755Z,999.85
2018-12-21T12:06:21.758Z,999.83